Time;durP1;ratioP1;P1;durP2;ratioP2;P2;SDS_P1;SDS_P2;PMS_P1;PMS_P2;Temp;Humidity;BMP_temperature;BMP_pressure;BME280_temperature;BME280_humidity;BME280_pressure;Samples;Min_cycle;Max_cycle;Signal;HPM_P1;HPM_P2
2023/08/27 00:00:23;;;;;;;17.70;15.90;;;16.90;99.90;;;;;;4972700;28;20188;-68
2023/08/27 00:02:48;;;;;;;20.13;18.27;;;16.90;99.90;;;;;;4974166;28;20262;-68
2023/08/27 00:05:14;;;;;;;17.57;15.97;;;16.90;99.90;;;;;;4972450;28;20689;-68
2023/08/27 00:07:39;;;;;;;17.67;16.17;;;16.90;99.90;;;;;;4973213;28;20210;-67
2023/08/27 00:10:05;;;;;;;19.47;17.70;;;16.90;99.90;;;;;;4973356;28;20313;-68
2023/08/27 00:12:31;;;;;;;19.10;16.60;;;17.00;99.90;;;;;;4974169;28;20176;-68
2023/08/27 00:14:57;;;;;;;16.13;14.73;;;17.00;99.90;;;;;;4973128;28;20470;-68
2023/08/27 00:17:22;;;;;;;16.73;15.37;;;16.90;99.90;;;;;;4972882;28;20443;-68
2023/08/27 00:19:48;;;;;;;17.83;16.23;;;16.90;99.90;;;;;;4972241;28;20180;-67
2023/08/27 00:22:13;;;;;;;16.53;15.03;;;16.90;99.90;;;;;;4973995;28;20647;-67
2023/08/27 00:24:39;;;;;;;19.33;17.60;;;16.80;99.90;;;;;;4973796;28;20168;-67
2023/08/27 00:27:05;;;;;;;22.87;20.30;;;16.80;99.90;;;;;;4970488;28;20638;-68
2023/08/27 00:29:31;;;;;;;21.53;19.30;;;16.70;99.90;;;;;;4972272;28;20212;-67
2023/08/27 00:31:57;;;;;;;20.97;19.07;;;16.70;99.90;;;;;;4973524;28;20427;-68
2023/08/27 00:34:32;;;;;;;21.43;19.50;;;16.80;99.90;;;;;;4973654;28;20416;-67
2023/08/27 00:36:59;;;;;;;22.90;19.00;;;16.80;99.90;;;;;;4970997;28;20203;-68
2023/08/27 00:39:25;;;;;;;21.10;19.20;;;16.80;99.90;;;;;;4972808;28;20423;-67
2023/08/27 00:41:50;;;;;;;18.77;16.90;;;16.90;99.90;;;;;;4973549;28;20823;-67
2023/08/27 00:44:16;;;;;;;20.70;18.70;;;16.90;99.90;;;;;;4973630;28;20176;-67
2023/08/27 00:46:43;;;;;;;20.00;18.03;;;17.10;99.90;;;;;;4972572;28;20719;-68
2023/08/27 00:49:09;;;;;;;18.87;17.00;;;17.00;99.90;;;;;;4971883;28;20208;-69
2023/08/27 00:51:35;;;;;;;19.70;17.80;;;17.00;99.90;;;;;;4973265;28;20457;-68
2023/08/27 00:54:01;;;;;;;20.57;18.77;;;17.00;99.90;;;;;;4973533;28;20478;-68
2023/08/27 00:56:26;;;;;;;20.50;18.60;;;17.00;99.90;;;;;;4973369;28;20439;-67
2023/08/27 00:58:52;;;;;;;19.23;17.33;;;17.00;99.90;;;;;;4971677;28;20232;-68
2023/08/27 01:01:20;;;;;;;19.50;17.57;;;17.00;99.90;;;;;;4973104;28;20208;-67
2023/08/27 01:03:46;;;;;;;19.90;18.20;;;17.00;99.90;;;;;;4971833;28;20195;-67
2023/08/27 01:06:12;;;;;;;19.83;18.13;;;17.10;99.90;;;;;;4972112;28;20459;-68
2023/08/27 01:08:48;;;;;;;18.73;16.97;;;17.10;99.90;;;;;;4971432;28;21021;-67
2023/08/27 01:11:29;;;;;;;18.30;16.17;;;17.10;99.90;;;;;;4973071;28;20451;-68
2023/08/27 01:14:02;;;;;;;18.40;16.73;;;17.10;99.90;;;;;;4973212;28;20900;-67
2023/08/27 01:16:29;;;;;;;18.43;15.10;;;17.20;99.90;;;;;;4971699;28;20613;-68
2023/08/27 01:18:56;;;;;;;17.33;15.83;;;17.10;99.90;;;;;;4971453;28;20812;-68
2023/08/27 01:21:25;;;;;;;17.67;15.97;;;17.20;99.90;;;;;;4972963;28;20430;-68
2023/08/27 01:23:51;;;;;;;18.50;16.90;;;17.20;99.90;;;;;;4973057;28;20451;-68
2023/08/27 01:26:34;;;;;;;19.97;17.80;;;17.20;99.90;;;;;;4971901;28;21028;-67
2023/08/27 01:29:15;;;;;;;17.07;15.67;;;17.20;99.90;;;;;;4953799;28;20563;-68
2023/08/27 01:31:51;;;;;;;15.83;14.33;;;17.20;99.90;;;;;;4971137;28;20841;-68
2023/08/27 01:34:18;;;;;;;24.07;16.03;;;17.20;99.90;;;;;;4972059;28;20407;-68
2023/08/27 01:36:43;;;;;;;18.50;16.87;;;17.20;99.90;;;;;;4972855;28;20790;-67
2023/08/27 01:39:14;;;;;;;17.77;16.07;;;17.10;99.90;;;;;;4972110;28;20442;-67
2023/08/27 01:41:39;;;;;;;18.23;16.73;;;17.10;99.90;;;;;;4972259;28;20630;-68
2023/08/27 01:44:05;;;;;;;15.57;14.30;;;17.00;99.90;;;;;;4973245;28;20506;-68
2023/08/27 01:46:30;;;;;;;17.00;14.90;;;17.10;99.90;;;;;;4976746;28;20626;-67
2023/08/27 01:48:56;;;;;;;16.40;13.70;;;17.10;99.90;;;;;;4974895;28;20208;-68
2023/08/27 01:51:21;;;;;;;16.20;13.83;;;17.20;99.90;;;;;;4973147;28;20215;-68
2023/08/27 01:53:47;;;;;;;14.23;12.83;;;17.20;99.90;;;;;;4976530;28;20207;-67
2023/08/27 01:56:12;;;;;;;14.23;13.13;;;17.20;99.90;;;;;;4976616;28;20602;-67
2023/08/27 01:58:38;;;;;;;13.50;12.20;;;17.20;99.90;;;;;;4974878;28;20271;-68
2023/08/27 02:01:04;;;;;;;14.80;13.30;;;17.20;99.90;;;;;;4975491;28;20184;-68
2023/08/27 02:03:29;;;;;;;15.10;13.70;;;17.10;99.90;;;;;;4975389;28;20176;-68
2023/08/27 02:05:55;;;;;;;15.60;13.37;;;17.10;99.90;;;;;;4976277;28;20208;-68
2023/08/27 02:08:20;;;;;;;13.60;12.33;;;17.10;99.90;;;;;;4973825;28;20212;-67
2023/08/27 02:10:49;;;;;;;16.43;14.93;;;17.10;99.90;;;;;;4975250;28;20542;-68
2023/08/27 02:13:15;;;;;;;14.47;13.13;;;17.20;99.90;;;;;;4975252;28;20184;-67
2023/08/27 02:15:42;;;;;;;13.90;12.60;;;17.20;99.90;;;;;;4975038;28;20470;-68
2023/08/27 02:18:08;;;;;;;12.30;11.10;;;17.20;99.90;;;;;;4976026;28;20542;-68
2023/08/27 02:20:34;;;;;;;14.37;12.97;;;17.10;99.90;;;;;;4975624;28;20419;-68
2023/08/27 02:22:59;;;;;;;12.40;11.40;;;17.10;99.90;;;;;;4975160;28;20192;-67
2023/08/27 02:25:25;;;;;;;15.10;13.30;;;17.10;99.90;;;;;;4975725;28;20200;-68
2023/08/27 02:27:50;;;;;;;14.50;13.23;;;17.10;99.90;;;;;;4976016;28;20270;-68
2023/08/27 02:30:16;;;;;;;14.23;12.97;;;17.10;99.90;;;;;;4975260;28;20213;-68
2023/08/27 02:32:41;;;;;;;13.80;12.40;;;17.00;99.90;;;;;;4973198;28;20223;-67
2023/08/27 02:35:07;;;;;;;14.77;13.53;;;17.10;99.90;;;;;;4975922;28;20208;-68
2023/08/27 02:37:32;;;;;;;14.30;12.87;;;17.00;99.90;;;;;;4975094;28;20187;-68
2023/08/27 02:39:58;;;;;;;14.50;12.97;;;17.00;99.90;;;;;;4975022;28;20183;-68
2023/08/27 02:42:24;;;;;;;14.50;13.40;;;17.00;99.90;;;;;;4974858;28;20649;-68
2023/08/27 02:44:49;;;;;;;14.47;12.97;;;17.10;99.90;;;;;;4975402;28;20199;-67
2023/08/27 02:47:16;;;;;;;18.27;13.30;;;17.00;99.90;;;;;;4974794;28;20656;-67
2023/08/27 02:49:42;;;;;;;16.77;14.17;;;17.00;99.90;;;;;;4974763;28;20286;-67
2023/08/27 02:52:07;;;;;;;13.80;12.43;;;17.00;99.90;;;;;;4973816;28;20530;-67
2023/08/27 02:54:33;;;;;;;13.73;12.53;;;17.10;99.90;;;;;;4973670;28;20206;-68
2023/08/27 02:56:58;;;;;;;14.13;12.83;;;17.10;99.90;;;;;;4974036;28;20212;-67
2023/08/27 02:59:24;;;;;;;15.30;13.80;;;17.10;99.90;;;;;;4974772;28;20183;-68
2023/08/27 03:01:52;;;;;;;14.90;13.50;;;17.00;99.90;;;;;;4975325;28;20177;-68
2023/08/27 03:04:17;;;;;;;15.20;13.90;;;17.00;99.90;;;;;;4973639;28;20661;-69
2023/08/27 03:06:43;;;;;;;20.83;15.53;;;17.00;99.90;;;;;;4975305;28;20471;-67
2023/08/27 03:09:08;;;;;;;17.50;15.70;;;16.90;99.90;;;;;;4974597;28;20300;-68
2023/08/27 03:11:34;;;;;;;17.17;15.77;;;16.80;99.90;;;;;;4972711;28;20188;-67
2023/08/27 03:13:59;;;;;;;22.03;16.60;;;16.70;99.90;;;;;;4971486;28;20203;-68
2023/08/27 03:16:25;;;;;;;19.30;17.50;;;16.60;99.90;;;;;;4974751;28;20232;-68
2023/08/27 03:18:50;;;;;;;17.43;15.80;;;16.50;99.90;;;;;;4974354;28;20180;-68
2023/08/27 03:21:17;;;;;;;17.83;15.43;;;16.50;99.90;;;;;;4975128;28;20210;-68
2023/08/27 03:23:42;;;;;;;15.70;14.20;;;16.50;99.90;;;;;;4974153;28;20514;-67
2023/08/27 03:26:08;;;;;;;17.20;15.60;;;16.40;99.90;;;;;;4972308;28;20214;-68
2023/08/27 03:28:33;;;;;;;18.70;16.80;;;16.40;99.90;;;;;;4973956;28;20210;-67
2023/08/27 03:31:03;;;;;;;17.63;16.07;;;16.30;99.90;;;;;;4974902;28;20172;-68
2023/08/27 03:33:31;;;;;;;17.70;16.00;;;16.30;99.90;;;;;;4973628;28;20195;-68
2023/08/27 03:35:57;;;;;;;18.73;16.80;;;16.30;99.90;;;;;;4971727;28;20455;-68
2023/08/27 03:38:23;;;;;;;17.10;15.60;;;16.30;99.90;;;;;;4973767;28;20518;-68
2023/08/27 03:40:50;;;;;;;15.27;14.00;;;16.40;99.90;;;;;;4973623;28;20447;-68
2023/08/27 03:43:16;;;;;;;17.40;14.37;;;16.30;99.90;;;;;;4974509;28;20428;-67
2023/08/27 03:45:42;;;;;;;17.07;15.67;;;16.20;99.90;;;;;;4973296;28;20466;-67
2023/08/27 03:48:08;;;;;;;16.50;14.87;;;16.30;99.90;;;;;;4974373;28;20957;-68
2023/08/27 03:50:35;;;;;;;15.27;13.87;;;16.30;99.90;;;;;;4974136;28;20263;-68
2023/08/27 03:53:01;;;;;;;15.50;14.20;;;16.30;99.90;;;;;;4973539;28;20222;-68
2023/08/27 03:55:27;;;;;;;16.37;14.77;;;16.30;99.90;;;;;;4972017;28;20459;-68
2023/08/27 03:57:52;;;;;;;17.50;15.40;;;16.30;99.90;;;;;;4972753;28;20195;-69
2023/08/27 04:00:18;;;;;;;18.53;16.63;;;16.30;99.90;;;;;;4972522;28;20223;-68
2023/08/27 04:02:44;;;;;;;15.77;14.13;;;16.40;99.90;;;;;;4974097;28;20187;-68
2023/08/27 04:05:11;;;;;;;15.83;14.43;;;16.40;99.90;;;;;;4973190;28;20208;-68
2023/08/27 04:07:36;;;;;;;15.87;14.50;;;16.50;99.90;;;;;;4972828;28;20490;-68
2023/08/27 04:10:04;;;;;;;15.90;13.50;;;16.50;99.90;;;;;;4973342;28;20431;-68
2023/08/27 04:12:31;;;;;;;15.10;13.50;;;16.50;99.90;;;;;;4973086;28;20255;-68
2023/08/27 04:14:57;;;;;;;14.47;13.07;;;16.40;99.90;;;;;;4973641;28;20447;-68
2023/08/27 04:17:22;;;;;;;13.80;12.50;;;16.40;99.90;;;;;;4970477;28;20448;-68
2023/08/27 04:19:48;;;;;;;12.40;11.23;;;16.30;99.90;;;;;;4973168;28;20498;-68
2023/08/27 04:22:14;;;;;;;11.10;10.20;;;16.30;99.90;;;;;;4974046;28;20180;-68
2023/08/27 04:24:41;;;;;;;10.70;9.67;;;16.30;99.90;;;;;;4973849;28;20180;-68
2023/08/27 04:27:07;;;;;;;11.80;10.70;;;16.20;99.90;;;;;;4972916;28;20252;-69
2023/08/27 04:29:32;;;;;;;11.40;10.40;;;16.20;99.90;;;;;;4971794;28;21186;-68
2023/08/27 04:31:57;;;;;;;12.30;11.00;;;16.20;99.90;;;;;;4972823;28;20191;-68
2023/08/27 04:34:23;;;;;;;11.10;10.00;;;16.20;99.90;;;;;;4973624;28;20221;-67
2023/08/27 04:36:49;;;;;;;11.70;10.60;;;16.30;99.90;;;;;;4970088;28;20720;-67
2023/08/27 04:39:14;;;;;;;11.60;10.47;;;16.30;99.90;;;;;;4971023;28;20188;-68
2023/08/27 04:41:40;;;;;;;11.27;10.27;;;16.30;99.90;;;;;;4973452;28;20220;-69
2023/08/27 04:44:05;;;;;;;11.33;10.30;;;16.30;99.90;;;;;;4971666;28;20184;-68
2023/08/27 04:46:31;;;;;;;10.33;9.43;;;16.30;99.90;;;;;;4973300;28;20204;-68
2023/08/27 04:48:57;;;;;;;10.27;8.93;;;16.20;99.90;;;;;;4971717;28;20212;-69
2023/08/27 04:51:25;;;;;;;11.80;10.70;;;16.20;99.90;;;;;;4972431;28;20531;-68
2023/08/27 04:53:50;;;;;;;9.70;8.90;;;16.20;99.90;;;;;;4973386;28;20207;-68
2023/08/27 04:56:16;;;;;;;9.57;8.70;;;16.30;99.90;;;;;;4972302;28;20968;-68
2023/08/27 04:58:42;;;;;;;10.63;9.70;;;16.30;99.90;;;;;;4969543;28;20184;-68
2023/08/27 05:01:09;;;;;;;10.67;9.70;;;16.20;99.90;;;;;;4973185;28;20187;-68
2023/08/27 05:03:34;;;;;;;8.93;8.13;;;16.20;99.90;;;;;;4973471;28;20180;-68
2023/08/27 05:06:00;;;;;;;8.87;8.17;;;16.20;99.90;;;;;;4973061;28;20937;-68
2023/08/27 05:08:26;;;;;;;8.37;7.67;;;16.30;99.90;;;;;;4970839;28;20251;-68
2023/08/27 05:10:52;;;;;;;7.73;7.13;;;16.30;99.90;;;;;;4972809;28;20166;-68
2023/08/27 05:13:17;;;;;;;8.03;7.23;;;16.30;99.90;;;;;;4973103;28;20511;-68
2023/08/27 05:15:43;;;;;;;8.57;7.87;;;16.40;99.90;;;;;;4973476;28;20267;-68
2023/08/27 05:18:11;;;;;;;7.67;7.07;;;16.30;99.90;;;;;;4972097;28;20180;-67
2023/08/27 05:20:37;;;;;;;8.30;7.60;;;16.40;99.90;;;;;;4969563;28;20271;-67
2023/08/27 05:23:04;;;;;;;8.47;7.77;;;16.40;99.90;;;;;;4971942;28;20463;-67
2023/08/27 05:25:29;;;;;;;8.57;7.63;;;16.50;99.90;;;;;;4971907;28;20444;-67
2023/08/27 05:27:55;;;;;;;8.07;7.37;;;16.50;99.90;;;;;;4964877;28;20462;-67
2023/08/27 05:30:20;;;;;;;12.67;6.60;;;16.50;99.90;;;;;;4971208;28;20564;-67
2023/08/27 05:32:46;;;;;;;8.30;7.60;;;16.50;99.90;;;;;;4972768;28;20168;-67
2023/08/27 05:35:12;;;;;;;8.03;7.30;;;16.50;99.90;;;;;;4972865;28;20232;-67
2023/08/27 05:37:37;;;;;;;10.40;6.93;;;16.50;99.90;;;;;;4972838;28;20175;-67
2023/08/27 05:40:08;;;;;;;8.90;8.03;;;16.60;99.90;;;;;;4969372;28;20191;-67
2023/08/27 05:42:34;;;;;;;9.00;8.27;;;16.60;99.90;;;;;;4971642;28;20654;-67
2023/08/27 05:45:00;;;;;;;10.10;8.17;;;16.70;99.90;;;;;;4972764;28;20498;-67
2023/08/27 05:47:26;;;;;;;8.20;7.60;;;16.70;99.90;;;;;;4971999;28;20817;-67
2023/08/27 05:49:52;;;;;;;6.83;6.23;;;16.80;99.90;;;;;;4970981;28;20705;-67
2023/08/27 05:52:18;;;;;;;7.57;6.87;;;16.80;99.90;;;;;;4971718;28;20458;-67
2023/08/27 05:54:44;;;;;;;7.50;6.90;;;16.80;99.90;;;;;;4971725;28;20966;-67
2023/08/27 05:57:09;;;;;;;7.13;5.77;;;16.80;99.90;;;;;;4972459;28;20191;-67
2023/08/27 05:59:35;;;;;;;6.57;6.07;;;16.70;99.90;;;;;;4969491;28;20192;-67
2023/08/27 06:02:00;;;;;;;5.73;5.23;;;16.60;99.90;;;;;;4970932;28;20821;-67
2023/08/27 06:04:26;;;;;;;5.30;4.80;;;16.60;99.90;;;;;;4971685;28;20188;-67
2023/08/27 06:06:51;;;;;;;5.87;4.33;;;16.50;99.90;;;;;;4970506;28;20217;-67
2023/08/27 06:09:17;;;;;;;5.30;4.80;;;16.50;99.90;;;;;;4969638;28;20296;-67
2023/08/27 06:11:42;;;;;;;4.63;4.23;;;16.50;99.90;;;;;;4971372;28;20183;-67
2023/08/27 06:14:08;;;;;;;5.97;3.90;;;16.50;99.90;;;;;;4971466;28;20259;-67
2023/08/27 06:16:34;;;;;;;4.57;4.10;;;16.50;99.90;;;;;;4972266;28;20303;-67
2023/08/27 06:19:00;;;;;;;6.00;4.33;;;16.50;99.90;;;;;;4971728;28;20164;-67
2023/08/27 06:21:27;;;;;;;4.70;4.40;;;16.50;99.90;;;;;;4969622;28;20447;-67
2023/08/27 06:23:53;;;;;;;4.63;4.27;;;16.60;99.90;;;;;;4972304;28;20169;-67
2023/08/27 06:26:18;;;;;;;4.37;4.07;;;16.70;99.90;;;;;;4971352;28;20514;-68
2023/08/27 06:28:44;;;;;;;4.93;4.60;;;16.80;99.90;;;;;;4970487;28;20275;-67
2023/08/27 06:31:10;;;;;;;8.83;6.57;;;17.00;99.90;;;;;;4971495;28;20188;-67
2023/08/27 06:33:38;;;;;;;4.17;3.90;;;17.10;99.90;;;;;;4974666;28;20435;-67
2023/08/27 06:36:04;;;;;;;4.10;3.80;;;17.10;99.90;;;;;;4975863;28;20769;-67
2023/08/27 06:38:30;;;;;;;3.77;3.47;;;17.30;99.90;;;;;;4975125;28;20427;-67
2023/08/27 06:40:55;;;;;;;2.90;2.70;;;17.20;99.90;;;;;;4974816;28;20446;-67
2023/08/27 06:43:21;;;;;;;3.10;2.90;;;17.30;99.90;;;;;;4974686;28;20234;-67
2023/08/27 06:45:47;;;;;;;3.83;3.53;;;17.30;99.90;;;;;;4975504;28;20335;-67
2023/08/27 06:48:13;;;;;;;6.20;3.30;;;17.30;99.90;;;;;;4973998;28;20207;-67
2023/08/27 06:50:38;;;;;;;4.03;2.80;;;17.30;99.90;;;;;;4973872;28;20439;-67
2023/08/27 06:53:04;;;;;;;3.80;3.50;;;17.20;99.90;;;;;;4973473;28;20208;-67
2023/08/27 06:55:30;;;;;;;4.40;2.97;;;17.30;99.90;;;;;;4975281;28;20192;-67
2023/08/27 06:57:55;;;;;;;4.30;3.60;;;17.30;99.90;;;;;;4975554;28;20718;-67
2023/08/27 07:00:32;;;;;;;3.77;3.57;;;17.40;99.90;;;;;;4973711;28;20173;-75
2023/08/27 07:02:57;;;;;;;4.63;4.03;;;17.50;99.90;;;;;;4970215;28;20673;-74
2023/08/27 07:05:23;;;;;;;4.27;3.97;;;17.50;99.90;;;;;;4971158;28;20455;-74
2023/08/27 07:07:49;;;;;;;4.00;3.70;;;17.60;99.90;;;;;;4971840;28;20172;-75
2023/08/27 07:10:15;;;;;;;3.57;3.27;;;17.70;99.90;;;;;;4972976;28;20431;-75
2023/08/27 07:12:40;;;;;;;3.77;3.57;;;17.80;99.90;;;;;;4973682;28;20168;-76
2023/08/27 07:15:07;;;;;;;5.27;3.60;;;18.00;99.90;;;;;;4973548;28;20469;-75
2023/08/27 07:17:33;;;;;;;4.40;3.17;;;18.00;99.90;;;;;;4973792;28;20168;-76
2023/08/27 07:20:00;;;;;;;3.57;3.30;;;18.20;99.90;;;;;;4971520;28;20430;-76
2023/08/27 07:22:25;;;;;;;8.47;4.20;;;18.30;99.90;;;;;;4973390;28;20921;-76
2023/08/27 07:24:51;;;;;;;3.23;3.03;;;18.30;99.90;;;;;;4973213;28;20446;-75
2023/08/27 07:27:17;;;;;;;3.93;3.63;;;18.30;99.90;;;;;;4973432;28;20176;-75
2023/08/27 07:29:43;;;;;;;6.93;6.40;;;18.20;99.90;;;;;;4972688;28;20464;-74
2023/08/27 07:32:08;;;;;;;5.17;4.77;;;18.30;99.90;;;;;;4973224;28;20850;-76
2023/08/27 07:34:34;;;;;;;6.53;3.30;;;18.40;99.90;;;;;;4973358;28;20419;-76
2023/08/27 07:36:59;;;;;;;6.53;3.30;;;18.60;99.90;;;;;;4973157;28;20853;-75
2023/08/27 07:39:25;;;;;;;3.53;3.33;;;18.50;99.90;;;;;;4959580;28;20212;-76
2023/08/27 07:41:51;;;;;;;3.27;3.00;;;18.30;99.90;;;;;;4969916;28;20218;-75
2023/08/27 07:44:17;;;;;;;3.77;3.00;;;18.40;99.90;;;;;;4967085;28;20180;-75
2023/08/27 07:46:42;;;;;;;3.20;2.90;;;18.50;99.90;;;;;;4961321;28;20675;-75
2023/08/27 07:49:09;;;;;;;3.47;3.00;;;18.60;99.90;;;;;;4956083;28;20466;-76
2023/08/27 07:51:35;;;;;;;3.20;3.00;;;18.70;99.90;;;;;;4958293;28;20321;-75
2023/08/27 07:54:00;;;;;;;3.57;3.27;;;18.70;99.90;;;;;;4960901;28;20547;-76
2023/08/27 07:56:26;;;;;;;3.27;3.07;;;18.80;99.90;;;;;;4960170;28;20603;-75
2023/08/27 07:58:52;;;;;;;3.07;2.70;;;18.60;99.90;;;;;;4955900;28;20172;-75
2023/08/27 08:01:18;;;;;;;4.03;3.73;;;18.60;99.90;;;;;;4956196;28;20227;-75
2023/08/27 08:03:43;;;;;;;3.03;2.83;;;18.70;99.90;;;;;;4971314;28;20184;-76
2023/08/27 08:06:09;;;;;;;5.00;3.00;;;18.70;99.90;;;;;;4964988;28;20470;-75
2023/08/27 08:08:35;;;;;;;2.87;2.67;;;18.60;99.90;;;;;;4958869;28;20312;-75
2023/08/27 08:11:02;;;;;;;3.27;2.97;;;18.60;99.90;;;;;;4958473;28;20180;-76
2023/08/27 08:13:27;;;;;;;2.50;2.40;;;18.60;99.90;;;;;;4963279;28;20180;-75
2023/08/27 08:15:53;;;;;;;2.70;2.40;;;18.60;99.90;;;;;;4963652;28;20491;-75
2023/08/27 08:18:18;;;;;;;2.63;2.43;;;18.60;99.90;;;;;;4954520;28;20173;-76
2023/08/27 08:20:44;;;;;;;5.23;2.67;;;18.60;99.90;;;;;;4959858;28;20177;-76
2023/08/27 08:23:10;;;;;;;2.83;2.60;;;18.60;99.90;;;;;;4954730;28;20284;-75
2023/08/27 08:25:37;;;;;;;2.60;1.90;;;18.70;99.90;;;;;;4958434;28;20210;-75
2023/08/27 08:28:05;;;;;;;2.53;2.33;;;18.80;99.90;;;;;;4959661;28;20197;-75
2023/08/27 08:30:30;;;;;;;2.40;2.20;;;18.80;99.90;;;;;;4955878;28;20439;-75
2023/08/27 08:32:56;;;;;;;2.70;2.43;;;18.70;99.90;;;;;;4953919;28;20439;-74
2023/08/27 08:35:21;;;;;;;3.03;2.60;;;18.80;99.90;;;;;;4955607;28;20200;-75
2023/08/27 08:37:47;;;;;;;3.20;2.30;;;18.80;99.90;;;;;;4962299;28;20235;-75
2023/08/27 08:40:14;;;;;;;7.60;4.20;;;18.80;99.90;;;;;;4953639;28;20177;-74
2023/08/27 08:42:49;;;;;;;2.30;2.20;;;18.90;99.90;;;;;;4960835;28;20243;-74
2023/08/27 08:45:37;;;;;;;2.77;2.57;;;19.00;99.90;;;;;;4957741;28;20577;-74
2023/08/27 08:48:05;;;;;;;4.60;2.33;;;19.00;99.90;;;;;;4963057;28;20467;-75
2023/08/27 08:50:35;;;;;;;2.50;2.30;;;19.30;99.90;;;;;;4968564;28;20446;-75
2023/08/27 08:53:13;;;;;;;5.50;4.60;;;19.50;99.90;;;;;;4958334;28;20436;-75
2023/08/27 08:55:46;;;;;;;2.03;1.93;;;19.60;99.90;;;;;;4954268;28;20458;-75
2023/08/27 08:58:13;;;;;;;4.50;2.57;;;19.70;99.90;;;;;;4963275;28;20444;-75
2023/08/27 09:00:39;;;;;;;3.03;2.80;;;19.60;99.90;;;;;;4959729;28;20460;-75
2023/08/27 09:03:05;;;;;;;2.50;2.30;;;19.50;99.90;;;;;;4962398;28;20475;-75
2023/08/27 09:05:35;;;;;;;2.43;2.30;;;19.40;99.90;;;;;;4957378;28;20448;-75
2023/08/27 09:08:02;;;;;;;4.13;2.07;;;19.50;99.90;;;;;;4965744;28;20225;-76
2023/08/27 09:10:28;;;;;;;3.17;2.10;;;19.40;99.90;;;;;;4959514;28;20536;-75
2023/08/27 09:12:56;;;;;;;2.17;1.97;;;19.40;99.90;;;;;;4953662;28;20837;-75
2023/08/27 09:15:22;;;;;;;2.77;2.33;;;19.60;99.90;;;;;;4956211;28;20481;-75
2023/08/27 09:17:48;;;;;;;3.37;2.33;;;19.80;99.90;;;;;;4962532;28;20540;-75
2023/08/27 09:20:14;;;;;;;1.87;1.77;;;19.90;99.90;;;;;;4964524;28;20507;-75
2023/08/27 09:22:41;;;;;;;1.87;1.77;;;20.10;99.90;;;;;;4962053;28;20432;-75
2023/08/27 09:25:09;;;;;;;2.37;2.17;;;20.10;99.90;;;;;;4965500;28;20472;-75
2023/08/27 09:27:35;;;;;;;2.77;2.57;;;20.00;99.90;;;;;;4962354;28;20527;-75
2023/08/27 09:30:04;;;;;;;3.10;2.87;;;20.10;99.90;;;;;;4956166;28;20460;-75
2023/08/27 09:32:30;;;;;;;2.50;2.30;;;20.30;99.90;;;;;;4969666;28;20474;-75
2023/08/27 09:35:00;;;;;;;3.30;2.67;;;20.80;99.90;;;;;;4962136;28;20448;-75
2023/08/27 09:37:27;;;;;;;2.00;1.90;;;21.30;99.90;;;;;;4964168;28;20180;-75
2023/08/27 09:39:54;;;;;;;2.10;2.00;;;21.80;99.90;;;;;;4963570;28;20488;-75
2023/08/27 09:42:21;;;;;;;2.10;2.00;;;22.20;99.90;;;;;;4956095;28;20483;-75
2023/08/27 09:44:51;;;;;;;2.13;1.83;;;22.00;99.90;;;;;;4962599;28;20834;-75
2023/08/27 09:47:29;;;;;;;1.90;1.80;;;22.20;99.90;;;;;;4962443;28;20468;-75
2023/08/27 09:49:55;;;;;;;1.60;1.50;;;22.30;99.90;;;;;;4964335;28;20526;-75
2023/08/27 09:52:24;;;;;;;3.80;1.77;;;22.10;99.90;;;;;;4966203;28;20439;-75
2023/08/27 09:54:51;;;;;;;2.00;1.90;;;22.00;99.90;;;;;;4956926;28;20667;-74
2023/08/27 09:57:19;;;;;;;1.70;1.60;;;21.80;99.90;;;;;;4968906;28;21128;-75
2023/08/27 09:59:45;;;;;;;2.27;2.00;;;22.00;99.90;;;;;;4961466;28;20821;-75
2023/08/27 10:02:14;;;;;;;1.97;1.87;;;22.20;99.90;;;;;;4965152;28;20452;-75
2023/08/27 10:04:52;;;;;;;2.30;2.00;;;22.20;99.90;;;;;;4968718;28;22361;-75
2023/08/27 10:07:18;;;;;;;2.43;1.83;;;22.00;99.90;;;;;;4969477;28;20451;-75
2023/08/27 10:09:52;;;;;;;5.20;3.20;;;22.20;99.90;;;;;;4958376;28;20471;-75
2023/08/27 10:12:19;;;;;;;2.30;2.10;;;22.10;99.90;;;;;;4966173;28;20251;-75
2023/08/27 10:14:46;;;;;;;1.90;1.80;;;22.30;99.90;;;;;;4970554;28;20432;-75
2023/08/27 10:17:13;;;;;;;2.67;2.10;;;22.30;99.90;;;;;;4969123;28;20431;-75
2023/08/27 10:19:39;;;;;;;2.73;2.07;;;22.20;99.90;;;;;;4963515;28;20444;-75
2023/08/27 10:22:05;;;;;;;2.90;2.23;;;22.10;99.90;;;;;;4970920;28;20443;-75
2023/08/27 10:24:32;;;;;;;2.07;1.97;;;22.10;99.90;;;;;;4965628;28;20471;-74
2023/08/27 10:27:03;;;;;;;2.83;2.63;;;22.20;99.90;;;;;;4955799;28;20451;-74
2023/08/27 10:29:29;;;;;;;2.20;2.00;;;22.20;99.90;;;;;;4962957;28;20477;-74
2023/08/27 10:31:55;;;;;;;2.60;2.40;;;22.40;99.90;;;;;;4957774;28;20448;-73
2023/08/27 10:34:23;;;;;;;2.60;2.40;;;23.00;99.90;;;;;;4963961;28;20448;-73
2023/08/27 10:36:51;;;;;;;2.50;2.30;;;23.20;99.90;;;;;;4968741;28;20200;-73
2023/08/27 10:39:19;;;;;;;1.90;1.80;;;23.30;99.90;;;;;;4960145;28;20429;-73
2023/08/27 10:41:45;;;;;;;2.37;1.93;;;22.90;99.90;;;;;;4968348;28;20945;-74
2023/08/27 10:44:10;;;;;;;2.90;2.00;;;22.70;99.90;;;;;;4965754;28;20531;-74
2023/08/27 10:46:36;;;;;;;2.07;1.97;;;22.50;99.90;;;;;;4956426;28;20530;-74
2023/08/27 10:49:15;;;;;;;2.00;1.90;;;22.50;99.90;;;;;;4955789;29;20283;-74
2023/08/27 10:51:40;;;;;;;2.47;2.27;;;22.60;99.90;;;;;;4971411;28;20187;-73
2023/08/27 10:54:07;;;;;;;4.73;2.37;;;22.60;99.90;;;;;;4974775;28;20443;-74
2023/08/27 10:56:38;;;;;;;3.03;2.33;;;22.40;99.90;;;;;;4975602;28;20258;-74
2023/08/27 10:59:25;;;;;;;2.40;2.20;;;22.40;99.90;;;;;;4974831;28;20515;-74
2023/08/27 11:01:54;;;;;;;2.13;2.03;;;22.70;99.90;;;;;;4973979;28;20451;-74
2023/08/27 11:04:20;;;;;;;2.37;2.27;;;22.60;99.90;;;;;;4973182;28;20444;-73
2023/08/27 11:06:49;;;;;;;2.30;2.10;;;22.40;99.90;;;;;;4975325;28;20506;-74
2023/08/27 11:09:20;;;;;;;2.33;2.10;;;22.50;99.90;;;;;;4974652;28;20255;-74
2023/08/27 11:11:49;;;;;;;3.57;3.27;;;22.60;99.90;;;;;;4975445;28;20523;-73
2023/08/27 11:14:16;;;;;;;2.10;1.90;;;22.80;99.90;;;;;;4972530;28;20436;-74
2023/08/27 11:16:53;;;;;;;1.83;1.73;;;22.90;99.90;;;;;;4973629;28;20463;-74
2023/08/27 11:19:27;;;;;;;2.30;1.97;;;23.20;99.90;;;;;;4973229;28;20447;-74
2023/08/27 11:22:03;;;;;;;1.70;1.60;;;23.40;99.90;;;;;;4975030;28;20455;-74
2023/08/27 11:24:29;;;;;;;2.30;2.10;;;23.30;99.90;;;;;;4971714;28;20530;-74
2023/08/27 11:26:54;;;;;;;2.13;2.03;;;23.30;99.90;;;;;;4975175;28;20875;-74
2023/08/27 11:29:23;;;;;;;1.80;1.70;;;23.20;99.90;;;;;;4974353;28;20291;-74
2023/08/27 11:31:49;;;;;;;3.50;2.27;;;22.90;99.90;;;;;;4975117;28;20177;-74
2023/08/27 11:34:15;;;;;;;5.10;3.93;;;23.00;99.90;;;;;;4972179;28;20440;-74
2023/08/27 11:36:46;;;;;;;1.90;1.80;;;23.30;99.90;;;;;;4973687;28;20455;-74
2023/08/27 11:39:14;;;;;;;2.53;2.33;;;23.40;99.90;;;;;;4974333;28;20423;-74
2023/08/27 11:41:43;;;;;;;2.40;2.20;;;23.00;99.90;;;;;;4974922;28;20462;-74
2023/08/27 11:44:12;;;;;;;2.40;2.20;;;22.80;99.90;;;;;;4972525;28;20444;-74
2023/08/27 11:46:42;;;;;;;2.53;2.23;;;22.90;99.90;;;;;;4974558;28;20937;-74
2023/08/27 11:49:08;;;;;;;2.30;2.10;;;23.20;99.90;;;;;;4972979;28;20467;-74
2023/08/27 11:51:34;;;;;;;2.90;1.90;;;23.30;99.90;;;;;;4974830;28;20443;-74
2023/08/27 11:54:05;;;;;;;2.27;1.93;;;23.10;99.90;;;;;;4974780;28;20596;-73
2023/08/27 11:56:34;;;;;;;3.20;2.77;;;22.90;99.90;;;;;;4973989;28;20463;-74
2023/08/27 11:58:59;;;;;;;3.40;3.10;;;22.70;99.90;;;;;;4969979;28;20522;-75
2023/08/27 12:01:25;;;;;;;3.10;2.70;;;22.60;99.90;;;;;;4973791;28;20443;-74
2023/08/27 12:03:52;;;;;;;4.80;2.30;;;22.60;99.90;;;;;;4973577;28;20184;-74
2023/08/27 12:06:26;;;;;;;2.10;2.00;;;22.60;99.90;;;;;;4971915;28;20212;-74
2023/08/27 12:08:55;;;;;;;2.43;2.23;;;22.60;99.90;;;;;;4973587;28;20470;-74
2023/08/27 12:11:27;;;;;;;2.20;2.00;;;22.70;99.90;;;;;;4971336;28;20979;-74
2023/08/27 12:14:00;;;;;;;2.63;2.40;;;22.90;99.90;;;;;;4974211;28;20424;-74
2023/08/27 12:16:33;;;;;;;2.23;2.00;;;23.10;99.90;;;;;;4974077;28;20470;-75
2023/08/27 12:19:08;;;;;;;1.90;1.80;;;23.30;99.90;;;;;;4971264;28;20784;-74
2023/08/27 12:21:47;;;;;;;3.33;3.03;;;23.40;99.90;;;;;;4972502;28;20439;-74
2023/08/27 12:24:34;;;;;;;3.00;2.40;;;23.50;99.90;;;;;;4974152;28;20423;-73
2023/08/27 12:27:20;;;;;;;5.07;1.90;;;23.60;99.90;;;;;;4971420;28;20455;-74
2023/08/27 12:29:46;;;;;;;2.80;2.50;;;23.50;99.90;;;;;;4971942;28;20486;-74
2023/08/27 12:32:13;;;;;;;5.83;2.90;;;23.40;99.90;;;;;;4972905;28;20439;-73
2023/08/27 12:34:49;;;;;;;2.43;2.23;;;23.40;99.90;;;;;;4973911;28;20431;-74
2023/08/27 12:37:17;;;;;;;2.53;2.00;;;23.60;99.90;;;;;;4971057;28;20446;-74